Copake, New York
Current Conditions -  °F | °C
As of 4:30 PM on Wednesday 26 Nov 2014 (Local Time) from KPSF Reporting Station
Light Snow Light Snow  
Wind Chill: 24°   Ceiling: NA
Heat Index: 31°   Visibility: 0.75mi
Dew Point: 30°   Wind: 7mph
Humidity: 96%   Direction: 20°NNE
Pressure: 29.9"   Gusts: NA
Location:  42.1°N, 73.55°W
Report Text: KPSF 262130Z AUTO 02006KT 3/4SM -SN BR M01/M01 A2990 RMK AO2 P0003 T10061011 $
Loading
Personal Weather Stations






























Interactive Weather Map New forecast layout! Learn more

10-Day Weather Forecast

Advertisements
Track Severe Weather on mobile